sensor_id;sensor_type;location;lat;lon;timestamp;temperature;humidity
6824;DHT22;58633;49.470;11.004;2022-09-09T00:12:35;16.30;71.40
6824;DHT22;58633;49.470;11.004;2022-09-09T00:15:07;16.40;72.00
6824;DHT22;58633;49.470;11.004;2022-09-09T00:17:51;16.30;72.70
6824;DHT22;58633;49.470;11.004;2022-09-09T00:20:21;15.70;73.20
6824;DHT22;58633;49.470;11.004;2022-09-09T00:23:16;16.20;72.80
6824;DHT22;58633;49.470;11.004;2022-09-09T00:28:31;15.00;74.80
6824;DHT22;58633;49.470;11.004;2022-09-09T00:31:13;16.10;74.40
6824;DHT22;58633;49.470;11.004;2022-09-09T00:33:41;16.20;74.40
6824;DHT22;58633;49.470;11.004;2022-09-09T00:36:14;16.20;74.70
6824;DHT22;58633;49.470;11.004;2022-09-09T00:38:47;16.20;75.00
6824;DHT22;58633;49.470;11.004;2022-09-09T00:44:31;16.10;76.20
6824;DHT22;58633;49.470;11.004;2022-09-09T00:52:41;16.10;77.50
6824;DHT22;58633;49.470;11.004;2022-09-09T00:55:16;16.00;77.70
6824;DHT22;58633;49.470;11.004;2022-09-09T00:57:44;16.00;78.90
6824;DHT22;58633;49.470;11.004;2022-09-09T01:17:24;15.80;80.00
6824;DHT22;58633;49.470;11.004;2022-09-09T01:20:13;15.90;80.40
6824;DHT22;58633;49.470;11.004;2022-09-09T01:23:04;15.80;80.30
6824;DHT22;58633;49.470;11.004;2022-09-09T01:28:21;15.20;79.80
6824;DHT22;58633;49.470;11.004;2022-09-09T01:30:48;15.90;80.10
6824;DHT22;58633;49.470;11.004;2022-09-09T01:38:12;15.20;81.10
6824;DHT22;58633;49.470;11.004;2022-09-09T01:43:05;16.30;82.90
6824;DHT22;58633;49.470;11.004;2022-09-09T01:47:59;16.10;82.90
6824;DHT22;58633;49.470;11.004;2022-09-09T01:50:25;15.40;82.90
6824;DHT22;58633;49.470;11.004;2022-09-09T01:52:55;15.80;81.00
6824;DHT22;58633;49.470;11.004;2022-09-09T01:55:29;15.80;81.80
6824;DHT22;58633;49.470;11.004;2022-09-09T02:00:30;15.80;84.10
6824;DHT22;58633;49.470;11.004;2022-09-09T02:03:22;15.80;81.50
6824;DHT22;58633;49.470;11.004;2022-09-09T02:06:21;15.80;81.20
6824;DHT22;58633;49.470;11.004;2022-09-09T02:08:53;15.80;80.70
6824;DHT22;58633;49.470;11.004;2022-09-09T02:11:24;15.80;80.50
6824;DHT22;58633;49.470;11.004;2022-09-09T02:21:25;16.20;85.50
6824;DHT22;58633;49.470;11.004;2022-09-09T02:23:54;15.60;83.40
6824;DHT22;58633;49.470;11.004;2022-09-09T02:33:48;15.80;83.80
6824;DHT22;58633;49.470;11.004;2022-09-09T02:36:19;15.80;82.40
6824;DHT22;58633;49.470;11.004;2022-09-09T02:38:46;15.50;84.30
6824;DHT22;58633;49.470;11.004;2022-09-09T02:43:43;16.30;86.10
6824;DHT22;58633;49.470;11.004;2022-09-09T02:46:23;15.70;83.50
6824;DHT22;58633;49.470;11.004;2022-09-09T02:48:59;15.70;83.90
6824;DHT22;58633;49.470;11.004;2022-09-09T02:54:10;15.70;84.20
6824;DHT22;58633;49.470;11.004;2022-09-09T02:56:41;15.50;83.50
6824;DHT22;58633;49.470;11.004;2022-09-09T02:59:09;15.30;86.10
6824;DHT22;58633;49.470;11.004;2022-09-09T03:04:02;14.80;85.20
6824;DHT22;58633;49.470;11.004;2022-09-09T03:06:30;15.00;88.50
6824;DHT22;58633;49.470;11.004;2022-09-09T03:08:56;15.30;86.90
6824;DHT22;58633;49.470;11.004;2022-09-09T03:13:51;16.10;89.10
6824;DHT22;58633;49.470;11.004;2022-09-09T03:18:43;15.20;89.80
6824;DHT22;58633;49.470;11.004;2022-09-09T03:23:36;16.50;88.70
6824;DHT22;58633;49.470;11.004;2022-09-09T03:28:27;15.70;88.00
6824;DHT22;58633;49.470;11.004;2022-09-09T03:31:00;15.40;86.10
6824;DHT22;58633;49.470;11.004;2022-09-09T03:35:52;15.60;86.70
6824;DHT22;58633;49.470;11.004;2022-09-09T03:38:18;15.60;87.60
6824;DHT22;58633;49.470;11.004;2022-09-09T03:40:54;15.40;86.70
6824;DHT22;58633;49.470;11.004;2022-09-09T03:50:48;15.40;87.00
6824;DHT22;58633;49.470;11.004;2022-09-09T03:53:15;15.80;89.60
6824;DHT22;58633;49.470;11.004;2022-09-09T03:58:13;15.60;86.10
6824;DHT22;58633;49.470;11.004;2022-09-09T04:00:39;15.50;87.00
6824;DHT22;58633;49.470;11.004;2022-09-09T04:03:10;15.80;89.40
6824;DHT22;58633;49.470;11.004;2022-09-09T04:05:36;15.40;88.90
6824;DHT22;58633;49.470;11.004;2022-09-09T04:08:06;15.70;87.00
6824;DHT22;58633;49.470;11.004;2022-09-09T04:10:31;15.00;84.80
6824;DHT22;58633;49.470;11.004;2022-09-09T04:15:23;15.00;87.20
6824;DHT22;58633;49.470;11.004;2022-09-09T04:17:49;15.60;88.30
6824;DHT22;58633;49.470;11.004;2022-09-09T04:22:41;16.00;90.30
6824;DHT22;58633;49.470;11.004;2022-09-09T04:25:07;15.60;90.20
6824;DHT22;58633;49.470;11.004;2022-09-09T04:27:32;15.10;89.60
6824;DHT22;58633;49.470;11.004;2022-09-09T04:29:58;14.60;90.30
6824;DHT22;58633;49.470;11.004;2022-09-09T04:32:25;15.30;89.20
6824;DHT22;58633;49.470;11.004;2022-09-09T04:34:53;15.80;90.60
6824;DHT22;58633;49.470;11.004;2022-09-09T04:42:11;16.20;92.80
6824;DHT22;58633;49.470;11.004;2022-09-09T04:47:03;15.80;91.10
6824;DHT22;58633;49.470;11.004;2022-09-09T04:49:28;15.70;90.90
6824;DHT22;58633;49.470;11.004;2022-09-09T04:51:57;16.00;88.20
6824;DHT22;58633;49.470;11.004;2022-09-09T04:56:52;14.90;88.00
6824;DHT22;58633;49.470;11.004;2022-09-09T04:59:17;16.20;88.20
6824;DHT22;58633;49.470;11.004;2022-09-09T05:01:43;15.00;87.40
6824;DHT22;58633;49.470;11.004;2022-09-09T05:04:09;15.80;87.80
6824;DHT22;58633;49.470;11.004;2022-09-09T05:06:34;16.00;86.10
6824;DHT22;58633;49.470;11.004;2022-09-09T05:13:57;16.10;88.10
6824;DHT22;58633;49.470;11.004;2022-09-09T05:16:23;15.60;89.30
6824;DHT22;58633;49.470;11.004;2022-09-09T05:18:49;15.00;88.30
6824;DHT22;58633;49.470;11.004;2022-09-09T05:21:17;17.20;88.70
6824;DHT22;58633;49.470;11.004;2022-09-09T05:23:44;15.40;89.30
6824;DHT22;58633;49.470;11.004;2022-09-09T05:26:16;15.90;88.30
6824;DHT22;58633;49.470;11.004;2022-09-09T05:28:43;15.80;86.50
6824;DHT22;58633;49.470;11.004;2022-09-09T05:31:10;15.50;90.00
6824;DHT22;58633;49.470;11.004;2022-09-09T05:36:19;15.10;90.10
6824;DHT22;58633;49.470;11.004;2022-09-09T05:41:12;16.20;89.10
6824;DHT22;58633;49.470;11.004;2022-09-09T05:43:39;16.00;86.30
6824;DHT22;58633;49.470;11.004;2022-09-09T05:46:09;16.00;86.90
6824;DHT22;58633;49.470;11.004;2022-09-09T05:48:37;16.60;90.00
6824;DHT22;58633;49.470;11.004;2022-09-09T05:51:05;16.70;90.50
6824;DHT22;58633;49.470;11.004;2022-09-09T05:53:32;15.70;87.60
6824;DHT22;58633;49.470;11.004;2022-09-09T05:56:04;16.10;85.80
6824;DHT22;58633;49.470;11.004;2022-09-09T05:58:34;16.10;84.30
6824;DHT22;58633;49.470;11.004;2022-09-09T06:01:05;15.90;85.70
6824;DHT22;58633;49.470;11.004;2022-09-09T06:03:33;16.10;86.00
6824;DHT22;58633;49.470;11.004;2022-09-09T06:06:01;17.10;85.80
6824;DHT22;58633;49.470;11.004;2022-09-09T06:08:27;16.60;84.50
6824;DHT22;58633;49.470;11.004;2022-09-09T06:10:53;16.80;84.30
6824;DHT22;58633;49.470;11.004;2022-09-09T06:15:51;16.20;83.20
6824;DHT22;58633;49.470;11.004;2022-09-09T06:18:19;16.30;83.90
6824;DHT22;58633;49.470;11.004;2022-09-09T06:21:01;16.00;83.90
6824;DHT22;58633;49.470;11.004;2022-09-09T06:23:30;16.20;85.20
6824;DHT22;58633;49.470;11.004;2022-09-09T06:26:17;16.40;84.10
6824;DHT22;58633;49.470;11.004;2022-09-09T06:28:45;16.50;82.90
6824;DHT22;58633;49.470;11.004;2022-09-09T06:31:12;16.60;81.40
6824;DHT22;58633;49.470;11.004;2022-09-09T06:33:40;16.50;81.90
6824;DHT22;58633;49.470;11.004;2022-09-09T06:36:36;16.40;82.30
6824;DHT22;58633;49.470;11.004;2022-09-09T06:39:03;16.50;82.50
6824;DHT22;58633;49.470;11.004;2022-09-09T06:41:31;16.60;80.00
6824;DHT22;58633;49.470;11.004;2022-09-09T06:43:57;16.60;80.10
6824;DHT22;58633;49.470;11.004;2022-09-09T06:46:25;16.60;80.10
6824;DHT22;58633;49.470;11.004;2022-09-09T06:48:54;16.50;80.10
6824;DHT22;58633;49.470;11.004;2022-09-09T06:51:26;16.30;80.20
6824;DHT22;58633;49.470;11.004;2022-09-09T06:53:54;16.60;80.60
6824;DHT22;58633;49.470;11.004;2022-09-09T06:56:25;16.60;80.10
6824;DHT22;58633;49.470;11.004;2022-09-09T06:58:56;16.50;79.70
6824;DHT22;58633;49.470;11.004;2022-09-09T07:01:24;16.60;79.40
6824;DHT22;58633;49.470;11.004;2022-09-09T07:03:52;16.70;79.00
6824;DHT22;58633;49.470;11.004;2022-09-09T07:06:24;16.80;78.40
6824;DHT22;58633;49.470;11.004;2022-09-09T07:08:52;16.80;78.90
6824;DHT22;58633;49.470;11.004;2022-09-09T07:11:19;16.90;78.60
6824;DHT22;58633;49.470;11.004;2022-09-09T07:13:45;16.90;78.10
6824;DHT22;58633;49.470;11.004;2022-09-09T07:16:13;16.90;77.40
6824;DHT22;58633;49.470;11.004;2022-09-09T07:18:40;16.90;76.70
6824;DHT22;58633;49.470;11.004;2022-09-09T07:21:07;16.60;76.10
6824;DHT22;58633;49.470;11.004;2022-09-09T07:23:34;16.80;76.90
6824;DHT22;58633;49.470;11.004;2022-09-09T07:26:01;16.60;76.20
6824;DHT22;58633;49.470;11.004;2022-09-09T07:28:28;16.70;75.90
6824;DHT22;58633;49.470;11.004;2022-09-09T07:31:00;16.80;76.40
6824;DHT22;58633;49.470;11.004;2022-09-09T07:33:30;16.90;76.70
6824;DHT22;58633;49.470;11.004;2022-09-09T07:36:12;16.80;76.90
6824;DHT22;58633;49.470;11.004;2022-09-09T07:38:47;16.80;77.40
6824;DHT22;58633;49.470;11.004;2022-09-09T07:43:48;16.90;76.40
6824;DHT22;58633;49.470;11.004;2022-09-09T07:46:15;16.60;76.10
6824;DHT22;58633;49.470;11.004;2022-09-09T07:48:53;17.00;76.90
6824;DHT22;58633;49.470;11.004;2022-09-09T07:51:31;17.20;75.20
6824;DHT22;58633;49.470;11.004;2022-09-09T07:53:59;17.40;75.10
6824;DHT22;58633;49.470;11.004;2022-09-09T07:56:27;17.30;75.10
6824;DHT22;58633;49.470;11.004;2022-09-09T07:58:55;17.20;75.00
6824;DHT22;58633;49.470;11.004;2022-09-09T08:01:32;17.20;75.00
6824;DHT22;58633;49.470;11.004;2022-09-09T08:04:05;17.50;75.00
6824;DHT22;58633;49.470;11.004;2022-09-09T08:06:35;17.10;74.30
6824;DHT22;58633;49.470;11.004;2022-09-09T08:09:03;17.30;74.10
6824;DHT22;58633;49.470;11.004;2022-09-09T08:11:29;17.30;74.50
6824;DHT22;58633;49.470;11.004;2022-09-09T08:13:55;17.60;74.20
6824;DHT22;58633;49.470;11.004;2022-09-09T08:16:26;17.40;73.90
6824;DHT22;58633;49.470;11.004;2022-09-09T08:18:53;17.50;73.90
6824;DHT22;58633;49.470;11.004;2022-09-09T08:21:22;17.60;74.60
6824;DHT22;58633;49.470;11.004;2022-09-09T08:23:50;17.70;74.50
6824;DHT22;58633;49.470;11.004;2022-09-09T08:26:20;17.80;73.90
6824;DHT22;58633;49.470;11.004;2022-09-09T08:28:52;17.90;73.30
6824;DHT22;58633;49.470;11.004;2022-09-09T08:31:20;18.10;71.40
6824;DHT22;58633;49.470;11.004;2022-09-09T08:33:48;18.00;71.60
6824;DHT22;58633;49.470;11.004;2022-09-09T08:36:19;18.20;71.50
6824;DHT22;58633;49.470;11.004;2022-09-09T08:38:50;18.30;70.00
6824;DHT22;58633;49.470;11.004;2022-09-09T08:52:49;19.10;67.60
6824;DHT22;58633;49.470;11.004;2022-09-09T08:58:14;19.60;65.70
6824;DHT22;58633;49.470;11.004;2022-09-09T09:03:52;19.70;65.00
6824;DHT22;58633;49.470;11.004;2022-09-09T09:11:58;20.20;62.50
6824;DHT22;58633;49.470;11.004;2022-09-09T09:14:31;20.30;62.30
6824;DHT22;58633;49.470;11.004;2022-09-09T09:17:16;20.50;62.20
6824;DHT22;58633;49.470;11.004;2022-09-09T09:19:43;20.60;61.10
6824;DHT22;58633;49.470;11.004;2022-09-09T09:22:19;20.60;60.70
6824;DHT22;58633;49.470;11.004;2022-09-09T09:27:31;20.60;60.80
6824;DHT22;58633;49.470;11.004;2022-09-09T09:30:00;20.60;60.80
6824;DHT22;58633;49.470;11.004;2022-09-09T09:32:28;20.10;60.70
6824;DHT22;58633;49.470;11.004;2022-09-09T09:34:56;20.20;61.40
6824;DHT22;58633;49.470;11.004;2022-09-09T09:37:30;19.90;62.90
6824;DHT22;58633;49.470;11.004;2022-09-09T09:40:06;19.80;64.90
6824;DHT22;58633;49.470;11.004;2022-09-09T09:42:32;19.80;63.60
6824;DHT22;58633;49.470;11.004;2022-09-09T09:45:23;19.80;64.10
6824;DHT22;58633;49.470;11.004;2022-09-09T09:48:06;20.20;63.80
6824;DHT22;58633;49.470;11.004;2022-09-09T09:50:32;20.10;64.20
6824;DHT22;58633;49.470;11.004;2022-09-09T09:53:03;20.10;64.80
6824;DHT22;58633;49.470;11.004;2022-09-09T09:55:34;19.90;64.60
6824;DHT22;58633;49.470;11.004;2022-09-09T09:58:15;19.90;64.00
6824;DHT22;58633;49.470;11.004;2022-09-09T10:00:52;19.90;63.50
6824;DHT22;58633;49.470;11.004;2022-09-09T10:03:32;19.80;63.30
6824;DHT22;58633;49.470;11.004;2022-09-09T10:06:03;19.80;64.30
6824;DHT22;58633;49.470;11.004;2022-09-09T10:08:29;19.70;63.80
6824;DHT22;58633;49.470;11.004;2022-09-09T10:14:03;19.80;64.20
6824;DHT22;58633;49.470;11.004;2022-09-09T10:25:15;20.00;66.40
6824;DHT22;58633;49.470;11.004;2022-09-09T10:33:33;20.70;64.80
6824;DHT22;58633;49.470;11.004;2022-09-09T10:38:40;20.90;63.60
6824;DHT22;58633;49.470;11.004;2022-09-09T10:41:11;21.30;60.70
6824;DHT22;58633;49.470;11.004;2022-09-09T10:44:00;21.00;60.70
6824;DHT22;58633;49.470;11.004;2022-09-09T10:59:50;21.10;58.50
6824;DHT22;58633;49.470;11.004;2022-09-09T11:02:28;21.50;58.00
6824;DHT22;58633;49.470;11.004;2022-09-09T11:05:19;21.50;58.10
6824;DHT22;58633;49.470;11.004;2022-09-09T11:07:59;21.70;57.00
6824;DHT22;58633;49.470;11.004;2022-09-09T11:10:40;21.80;56.70
6824;DHT22;58633;49.470;11.004;2022-09-09T11:13:23;21.70;57.10
6824;DHT22;58633;49.470;11.004;2022-09-09T11:15:57;21.60;56.30
6824;DHT22;58633;49.470;11.004;2022-09-09T11:18:23;21.60;56.50
6824;DHT22;58633;49.470;11.004;2022-09-09T11:20:53;21.50;56.30
6824;DHT22;58633;49.470;11.004;2022-09-09T11:23:28;21.40;55.60
6824;DHT22;58633;49.470;11.004;2022-09-09T11:26:00;21.40;56.00
6824;DHT22;58633;49.470;11.004;2022-09-09T11:29:01;21.40;56.30
6824;DHT22;58633;49.470;11.004;2022-09-09T11:32:48;21.40;56.20
6824;DHT22;58633;49.470;11.004;2022-09-09T11:34:56;21.40;56.70
6824;DHT22;58633;49.470;11.004;2022-09-09T11:37:51;21.50;56.40
6824;DHT22;58633;49.470;11.004;2022-09-09T11:40:23;21.90;55.50
6824;DHT22;58633;49.470;11.004;2022-09-09T11:42:49;21.90;54.80
6824;DHT22;58633;49.470;11.004;2022-09-09T11:45:27;21.90;55.20
6824;DHT22;58633;49.470;11.004;2022-09-09T11:47:59;22.80;55.30
6824;DHT22;58633;49.470;11.004;2022-09-09T11:55:38;21.80;54.90
6824;DHT22;58633;49.470;11.004;2022-09-09T12:05:58;21.90;54.00
6824;DHT22;58633;49.470;11.004;2022-09-09T12:08:28;21.80;53.40
6824;DHT22;58633;49.470;11.004;2022-09-09T12:10:58;21.80;52.10
6824;DHT22;58633;49.470;11.004;2022-09-09T12:13:26;21.90;52.00
6824;DHT22;58633;49.470;11.004;2022-09-09T12:15:56;22.00;51.60
6824;DHT22;58633;49.470;11.004;2022-09-09T12:18:25;22.20;52.10
6824;DHT22;58633;49.470;11.004;2022-09-09T12:20:57;22.10;52.30
6824;DHT22;58633;49.470;11.004;2022-09-09T12:23:37;22.30;51.40
6824;DHT22;58633;49.470;11.004;2022-09-09T12:28:58;22.40;49.70
6824;DHT22;58633;49.470;11.004;2022-09-09T12:31:50;22.40;50.00
6824;DHT22;58633;49.470;11.004;2022-09-09T12:34:40;22.50;49.70
6824;DHT22;58633;49.470;11.004;2022-09-09T12:37:15;22.40;50.00
6824;DHT22;58633;49.470;11.004;2022-09-09T12:39:48;22.40;50.30
6824;DHT22;58633;49.470;11.004;2022-09-09T12:42:21;22.10;49.80
6824;DHT22;58633;49.470;11.004;2022-09-09T12:45:17;22.00;49.90
6824;DHT22;58633;49.470;11.004;2022-09-09T12:50:32;22.00;50.40
6824;DHT22;58633;49.470;11.004;2022-09-09T12:53:02;22.00;50.50
6824;DHT22;58633;49.470;11.004;2022-09-09T12:55:31;21.90;50.60
6824;DHT22;58633;49.470;11.004;2022-09-09T12:57:59;21.80;50.90
6824;DHT22;58633;49.470;11.004;2022-09-09T13:00:27;21.80;51.30
6824;DHT22;58633;49.470;11.004;2022-09-09T13:02:55;21.60;52.20
6824;DHT22;58633;49.470;11.004;2022-09-09T13:05:41;21.60;52.80
6824;DHT22;58633;49.470;11.004;2022-09-09T13:08:13;20.90;53.70
6824;DHT22;58633;49.470;11.004;2022-09-09T13:13:19;20.70;55.70
6824;DHT22;58633;49.470;11.004;2022-09-09T13:15:59;21.20;56.30
6824;DHT22;58633;49.470;11.004;2022-09-09T13:18:30;21.20;57.00
6824;DHT22;58633;49.470;11.004;2022-09-09T13:20:57;22.20;55.90
6824;DHT22;58633;49.470;11.004;2022-09-09T13:23:27;23.00;55.90
6824;DHT22;58633;49.470;11.004;2022-09-09T13:26:06;23.00;56.00
6824;DHT22;58633;49.470;11.004;2022-09-09T13:28:34;24.10;54.50
6824;DHT22;58633;49.470;11.004;2022-09-09T13:31:05;24.40;53.90
6824;DHT22;58633;49.470;11.004;2022-09-09T13:33:37;25.80;54.90
6824;DHT22;58633;49.470;11.004;2022-09-09T13:36:08;25.10;52.70
6824;DHT22;58633;49.470;11.004;2022-09-09T13:41:36;25.10;51.30
6824;DHT22;58633;49.470;11.004;2022-09-09T13:44:03;25.20;51.70
6824;DHT22;58633;49.470;11.004;2022-09-09T13:49:20;25.00;50.60
6824;DHT22;58633;49.470;11.004;2022-09-09T13:51:49;24.80;50.90
6824;DHT22;58633;49.470;11.004;2022-09-09T13:54:18;24.70;51.10
6824;DHT22;58633;49.470;11.004;2022-09-09T13:56:45;24.70;51.60
6824;DHT22;58633;49.470;11.004;2022-09-09T13:59:13;24.60;52.00
6824;DHT22;58633;49.470;11.004;2022-09-09T14:01:39;24.50;52.30
6824;DHT22;58633;49.470;11.004;2022-09-09T14:04:05;24.50;52.80
6824;DHT22;58633;49.470;11.004;2022-09-09T14:06:32;24.10;52.70
6824;DHT22;58633;49.470;11.004;2022-09-09T14:08:58;24.30;53.20
6824;DHT22;58633;49.470;11.004;2022-09-09T14:11:24;24.30;53.50
6824;DHT22;58633;49.470;11.004;2022-09-09T14:13:50;24.40;53.80
6824;DHT22;58633;49.470;11.004;2022-09-09T14:16:16;24.20;53.80
6824;DHT22;58633;49.470;11.004;2022-09-09T14:18:43;24.30;54.40
6824;DHT22;58633;49.470;11.004;2022-09-09T14:21:09;24.30;54.20
6824;DHT22;58633;49.470;11.004;2022-09-09T14:23:35;24.20;54.70
6824;DHT22;58633;49.470;11.004;2022-09-09T14:26:00;24.10;54.20
6824;DHT22;58633;49.470;11.004;2022-09-09T14:28:26;24.10;54.30
6824;DHT22;58633;49.470;11.004;2022-09-09T14:30:53;24.40;55.00
6824;DHT22;58633;49.470;11.004;2022-09-09T14:33:19;23.90;54.50
6824;DHT22;58633;49.470;11.004;2022-09-09T14:35:44;23.80;54.70
6824;DHT22;58633;49.470;11.004;2022-09-09T14:38:10;24.50;55.80
6824;DHT22;58633;49.470;11.004;2022-09-09T14:40:37;23.60;55.50
6824;DHT22;58633;49.470;11.004;2022-09-09T14:43:04;23.40;55.50
6824;DHT22;58633;49.470;11.004;2022-09-09T14:45:29;23.10;55.50
6824;DHT22;58633;49.470;11.004;2022-09-09T14:47:55;22.90;56.10
6824;DHT22;58633;49.470;11.004;2022-09-09T14:50:22;22.60;56.20
6824;DHT22;58633;49.470;11.004;2022-09-09T14:52:48;22.30;56.60
6824;DHT22;58633;49.470;11.004;2022-09-09T14:55:15;22.20;57.00
6824;DHT22;58633;49.470;11.004;2022-09-09T14:57:41;22.20;57.30
6824;DHT22;58633;49.470;11.004;2022-09-09T15:00:08;22.40;57.20
6824;DHT22;58633;49.470;11.004;2022-09-09T15:02:34;22.60;57.00
6824;DHT22;58633;49.470;11.004;2022-09-09T15:04:59;23.10;56.50
6824;DHT22;58633;49.470;11.004;2022-09-09T15:07:27;23.00;55.60
6824;DHT22;58633;49.470;11.004;2022-09-09T15:09:54;22.80;55.50
6824;DHT22;58633;49.470;11.004;2022-09-09T15:12:19;22.60;55.50
6824;DHT22;58633;49.470;11.004;2022-09-09T15:14:46;22.60;55.70
6824;DHT22;58633;49.470;11.004;2022-09-09T15:17:11;22.40;56.00
6824;DHT22;58633;49.470;11.004;2022-09-09T15:19:37;22.20;55.90
6824;DHT22;58633;49.470;11.004;2022-09-09T15:22:04;22.00;56.10
6824;DHT22;58633;49.470;11.004;2022-09-09T15:24:31;21.80;56.20
6824;DHT22;58633;49.470;11.004;2022-09-09T15:26:57;22.10;56.30
6824;DHT22;58633;49.470;11.004;2022-09-09T15:29:23;21.90;56.10
6824;DHT22;58633;49.470;11.004;2022-09-09T15:31:48;21.90;56.50
6824;DHT22;58633;49.470;11.004;2022-09-09T15:34:14;22.00;56.40
6824;DHT22;58633;49.470;11.004;2022-09-09T15:36:41;21.90;55.50
6824;DHT22;58633;49.470;11.004;2022-09-09T15:39:13;21.80;55.30
6824;DHT22;58633;49.470;11.004;2022-09-09T15:41:41;22.10;55.20
6824;DHT22;58633;49.470;11.004;2022-09-09T15:44:08;22.30;54.50
6824;DHT22;58633;49.470;11.004;2022-09-09T15:46:40;22.30;54.80
6824;DHT22;58633;49.470;11.004;2022-09-09T15:49:23;22.50;53.30
6824;DHT22;58633;49.470;11.004;2022-09-09T15:51:58;22.50;53.30
6824;DHT22;58633;49.470;11.004;2022-09-09T15:54:25;22.60;53.00
6824;DHT22;58633;49.470;11.004;2022-09-09T15:56:56;22.20;51.50
6824;DHT22;58633;49.470;11.004;2022-09-09T15:59:23;22.40;52.10
6824;DHT22;58633;49.470;11.004;2022-09-09T16:01:50;22.40;51.30
6824;DHT22;58633;49.470;11.004;2022-09-09T16:04:19;22.20;51.00
6824;DHT22;58633;49.470;11.004;2022-09-09T16:09:17;22.40;50.30
6824;DHT22;58633;49.470;11.004;2022-09-09T16:14:09;22.00;50.30
6824;DHT22;58633;49.470;11.004;2022-09-09T16:16:37;22.30;50.50
6824;DHT22;58633;49.470;11.004;2022-09-09T16:19:07;22.10;50.10
6824;DHT22;58633;49.470;11.004;2022-09-09T16:21:37;22.10;50.40
6824;DHT22;58633;49.470;11.004;2022-09-09T16:24:04;22.10;50.70
6824;DHT22;58633;49.470;11.004;2022-09-09T16:26:34;22.20;50.60
6824;DHT22;58633;49.470;11.004;2022-09-09T16:29:01;22.10;50.90
6824;DHT22;58633;49.470;11.004;2022-09-09T16:31:28;22.10;50.90
6824;DHT22;58633;49.470;11.004;2022-09-09T16:33:55;22.40;50.30
6824;DHT22;58633;49.470;11.004;2022-09-09T16:36:23;22.60;50.10
6824;DHT22;58633;49.470;11.004;2022-09-09T16:38:53;22.60;49.90
6824;DHT22;58633;49.470;11.004;2022-09-09T16:41:20;22.80;50.50
6824;DHT22;58633;49.470;11.004;2022-09-09T16:43:47;22.50;50.30
6824;DHT22;58633;49.470;11.004;2022-09-09T16:46:16;22.50;50.70
6824;DHT22;58633;49.470;11.004;2022-09-09T16:48:44;22.20;50.70
6824;DHT22;58633;49.470;11.004;2022-09-09T16:51:16;22.20;51.90
6824;DHT22;58633;49.470;11.004;2022-09-09T16:53:42;22.00;50.90
6824;DHT22;58633;49.470;11.004;2022-09-09T16:56:15;21.90;50.70
6824;DHT22;58633;49.470;11.004;2022-09-09T16:58:42;21.90;50.90
6824;DHT22;58633;49.470;11.004;2022-09-09T17:01:11;21.70;50.60
6824;DHT22;58633;49.470;11.004;2022-09-09T17:03:40;21.80;51.20
6824;DHT22;58633;49.470;11.004;2022-09-09T17:06:10;21.90;51.10
6824;DHT22;58633;49.470;11.004;2022-09-09T17:08:37;21.70;51.00
6824;DHT22;58633;49.470;11.004;2022-09-09T17:11:02;21.70;50.60
6824;DHT22;58633;49.470;11.004;2022-09-09T17:13:29;21.80;51.10
6824;DHT22;58633;49.470;11.004;2022-09-09T17:15:56;21.30;50.70
6824;DHT22;58633;49.470;11.004;2022-09-09T17:18:22;21.50;51.20
6824;DHT22;58633;49.470;11.004;2022-09-09T17:20:47;21.40;51.40
6824;DHT22;58633;49.470;11.004;2022-09-09T17:23:13;21.30;51.60
6824;DHT22;58633;49.470;11.004;2022-09-09T17:25:41;21.10;51.80
6824;DHT22;58633;49.470;11.004;2022-09-09T17:30:36;21.00;52.00
6824;DHT22;58633;49.470;11.004;2022-09-09T17:33:03;21.10;52.30
6824;DHT22;58633;49.470;11.004;2022-09-09T17:35:29;21.10;52.20
6824;DHT22;58633;49.470;11.004;2022-09-09T17:37:55;21.30;52.40
6824;DHT22;58633;49.470;11.004;2022-09-09T17:40:21;21.50;52.40
6824;DHT22;58633;49.470;11.004;2022-09-09T17:42:47;21.40;52.80
6824;DHT22;58633;49.470;11.004;2022-09-09T17:45:14;21.40;52.40
6824;DHT22;58633;49.470;11.004;2022-09-09T17:47:40;21.50;52.30
6824;DHT22;58633;49.470;11.004;2022-09-09T17:50:08;21.50;52.20
6824;DHT22;58633;49.470;11.004;2022-09-09T17:52:35;21.30;52.10
6824;DHT22;58633;49.470;11.004;2022-09-09T17:55:00;21.40;52.10
6824;DHT22;58633;49.470;11.004;2022-09-09T17:57:26;21.30;52.50
6824;DHT22;58633;49.470;11.004;2022-09-09T17:59:52;21.60;52.30
6824;DHT22;58633;49.470;11.004;2022-09-09T18:02:18;21.40;52.50
6824;DHT22;58633;49.470;11.004;2022-09-09T18:04:43;21.40;52.50
6824;DHT22;58633;49.470;11.004;2022-09-09T18:07:09;21.10;52.00
6824;DHT22;58633;49.470;11.004;2022-09-09T18:09:35;21.10;52.00
6824;DHT22;58633;49.470;11.004;2022-09-09T18:12:03;21.10;51.60
6824;DHT22;58633;49.470;11.004;2022-09-09T18:14:30;21.00;51.60
6824;DHT22;58633;49.470;11.004;2022-09-09T18:16:57;21.00;51.80
6824;DHT22;58633;49.470;11.004;2022-09-09T18:19:27;21.00;51.80
6824;DHT22;58633;49.470;11.004;2022-09-09T18:21:53;20.90;51.80
6824;DHT22;58633;49.470;11.004;2022-09-09T18:24:20;21.00;52.40
6824;DHT22;58633;49.470;11.004;2022-09-09T18:26:46;20.80;51.80
6824;DHT22;58633;49.470;11.004;2022-09-09T18:29:18;20.90;52.40
6824;DHT22;58633;49.470;11.004;2022-09-09T18:31:45;20.80;52.30
6824;DHT22;58633;49.470;11.004;2022-09-09T18:34:13;18.00;62.90
6824;DHT22;58633;49.470;11.004;2022-09-09T18:36:48;16.80;68.10
6824;DHT22;58633;49.470;11.004;2022-09-09T18:39:16;16.20;73.30
6824;DHT22;58633;49.470;11.004;2022-09-09T18:41:44;15.90;90.80
6824;DHT22;58633;49.470;11.004;2022-09-09T18:44:16;15.60;99.90
6824;DHT22;58633;49.470;11.004;2022-09-09T18:46:43;15.50;99.90
6824;DHT22;58633;49.470;11.004;2022-09-09T18:49:09;15.60;99.90
6824;DHT22;58633;49.470;11.004;2022-09-09T18:51:39;15.70;99.90
6824;DHT22;58633;49.470;11.004;2022-09-09T18:54:20;15.70;99.90
6824;DHT22;58633;49.470;11.004;2022-09-09T18:56:46;15.70;99.90
6824;DHT22;58633;49.470;11.004;2022-09-09T18:59:15;15.70;99.90
6824;DHT22;58633;49.470;11.004;2022-09-09T19:01:43;15.70;99.90
6824;DHT22;58633;49.470;11.004;2022-09-09T19:04:09;15.70;99.90
6824;DHT22;58633;49.470;11.004;2022-09-09T19:06:40;15.70;99.90
6824;DHT22;58633;49.470;11.004;2022-09-09T19:09:09;15.70;99.90
6824;DHT22;58633;49.470;11.004;2022-09-09T19:11:34;15.70;99.90
6824;DHT22;58633;49.470;11.004;2022-09-09T19:14:02;15.60;99.90
6824;DHT22;58633;49.470;11.004;2022-09-09T19:16:30;15.70;99.90
6824;DHT22;58633;49.470;11.004;2022-09-09T19:19:01;15.90;99.90
6824;DHT22;58633;49.470;11.004;2022-09-09T19:21:29;15.50;99.90
6824;DHT22;58633;49.470;11.004;2022-09-09T19:26:34;15.40;99.90
6824;DHT22;58633;49.470;11.004;2022-09-09T19:31:31;15.30;99.90
6824;DHT22;58633;49.470;11.004;2022-09-09T19:33:56;15.60;99.90
6824;DHT22;58633;49.470;11.004;2022-09-09T19:36:23;15.60;99.90